sensor_id;sensor_type;location;lat;lon;timestamp;temperature;humidity
16243;DHT22;11719;51.052;6.982;2022-11-30T00:01:15;12.20;99.90
16243;DHT22;11719;51.052;6.982;2022-11-30T00:03:45;12.20;99.90
16243;DHT22;11719;51.052;6.982;2022-11-30T00:06:14;12.20;99.90
16243;DHT22;11719;51.052;6.982;2022-11-30T00:08:41;12.20;99.90
16243;DHT22;11719;51.052;6.982;2022-11-30T00:11:12;12.20;99.90
16243;DHT22;11719;51.052;6.982;2022-11-30T00:13:40;12.10;99.90
16243;DHT22;11719;51.052;6.982;2022-11-30T00:16:07;12.10;99.90
16243;DHT22;11719;51.052;6.982;2022-11-30T00:18:33;12.20;99.90
16243;DHT22;11719;51.052;6.982;2022-11-30T00:21:04;12.10;99.90
16243;DHT22;11719;51.052;6.982;2022-11-30T00:23:34;12.20;99.90
16243;DHT22;11719;51.052;6.982;2022-11-30T00:26:02;12.20;99.90
16243;DHT22;11719;51.052;6.982;2022-11-30T00:28:30;12.50;99.90
16243;DHT22;11719;51.052;6.982;2022-11-30T00:31:01;12.40;99.90
16243;DHT22;11719;51.052;6.982;2022-11-30T00:33:32;12.30;99.90
16243;DHT22;11719;51.052;6.982;2022-11-30T00:36:00;12.30;99.90
16243;DHT22;11719;51.052;6.982;2022-11-30T00:38:28;12.30;99.90
16243;DHT22;11719;51.052;6.982;2022-11-30T00:40:53;12.30;99.90
16243;DHT22;11719;51.052;6.982;2022-11-30T00:43:21;12.20;99.90
16243;DHT22;11719;51.052;6.982;2022-11-30T00:45:46;12.10;99.90
16243;DHT22;11719;51.052;6.982;2022-11-30T00:48:12;12.10;99.90
16243;DHT22;11719;51.052;6.982;2022-11-30T00:50:38;12.10;99.90
16243;DHT22;11719;51.052;6.982;2022-11-30T00:53:04;12.10;99.90
16243;DHT22;11719;51.052;6.982;2022-11-30T00:55:29;12.20;99.90
16243;DHT22;11719;51.052;6.982;2022-11-30T00:57:59;12.10;99.90
16243;DHT22;11719;51.052;6.982;2022-11-30T01:00:26;12.30;99.90
16243;DHT22;11719;51.052;6.982;2022-11-30T01:02:56;12.50;99.90
16243;DHT22;11719;51.052;6.982;2022-11-30T01:05:24;12.50;99.90
16243;DHT22;11719;51.052;6.982;2022-11-30T01:07:49;12.40;99.90
16243;DHT22;11719;51.052;6.982;2022-11-30T01:10:16;12.40;99.90
16243;DHT22;11719;51.052;6.982;2022-11-30T01:12:42;12.30;99.90
16243;DHT22;11719;51.052;6.982;2022-11-30T01:15:08;12.30;99.90
16243;DHT22;11719;51.052;6.982;2022-11-30T01:17:34;12.30;99.90
16243;DHT22;11719;51.052;6.982;2022-11-30T01:20:00;12.20;99.90
16243;DHT22;11719;51.052;6.982;2022-11-30T01:22:25;12.10;99.90
16243;DHT22;11719;51.052;6.982;2022-11-30T01:24:51;12.20;99.90
16243;DHT22;11719;51.052;6.982;2022-11-30T01:27:17;12.30;99.90
16243;DHT22;11719;51.052;6.982;2022-11-30T01:29:43;12.30;99.90
16243;DHT22;11719;51.052;6.982;2022-11-30T01:32:08;12.30;99.90
16243;DHT22;11719;51.052;6.982;2022-11-30T01:34:34;12.20;99.90
16243;DHT22;11719;51.052;6.982;2022-11-30T01:37:00;12.10;99.90
16243;DHT22;11719;51.052;6.982;2022-11-30T01:39:25;12.00;99.90
16243;DHT22;11719;51.052;6.982;2022-11-30T01:41:53;12.00;99.90
16243;DHT22;11719;51.052;6.982;2022-11-30T01:47:04;12.10;99.90
16243;DHT22;11719;51.052;6.982;2022-11-30T01:49:40;12.10;99.90
16243;DHT22;11719;51.052;6.982;2022-11-30T01:52:16;12.20;99.90
16243;DHT22;11719;51.052;6.982;2022-11-30T01:55:29;12.20;99.90
16243;DHT22;11719;51.052;6.982;2022-11-30T01:57:48;12.20;99.90
16243;DHT22;11719;51.052;6.982;2022-11-30T02:00:19;12.20;99.90
16243;DHT22;11719;51.052;6.982;2022-11-30T02:05:20;12.00;99.90
16243;DHT22;11719;51.052;6.982;2022-11-30T02:07:46;12.00;99.90
16243;DHT22;11719;51.052;6.982;2022-11-30T02:10:18;12.10;99.90
16243;DHT22;11719;51.052;6.982;2022-11-30T02:13:18;12.00;99.90
16243;DHT22;11719;51.052;6.982;2022-11-30T02:21:40;12.00;99.90
16243;DHT22;11719;51.052;6.982;2022-11-30T02:24:45;11.90;99.90
16243;DHT22;11719;51.052;6.982;2022-11-30T02:27:45;12.00;99.90
16243;DHT22;11719;51.052;6.982;2022-11-30T02:30:20;12.00;99.90
16243;DHT22;11719;51.052;6.982;2022-11-30T02:35:17;12.00;99.90
16243;DHT22;11719;51.052;6.982;2022-11-30T02:37:45;11.90;99.90
16243;DHT22;11719;51.052;6.982;2022-11-30T02:40:14;11.90;99.90
16243;DHT22;11719;51.052;6.982;2022-11-30T02:42:41;11.90;99.90
16243;DHT22;11719;51.052;6.982;2022-11-30T02:45:08;11.90;99.90
16243;DHT22;11719;51.052;6.982;2022-11-30T02:47:40;11.80;99.90
16243;DHT22;11719;51.052;6.982;2022-11-30T02:50:38;11.80;99.90
16243;DHT22;11719;51.052;6.982;2022-11-30T02:53:18;11.90;99.90
16243;DHT22;11719;51.052;6.982;2022-11-30T02:55:44;12.00;99.90
16243;DHT22;11719;51.052;6.982;2022-11-30T02:58:11;11.90;99.90
16243;DHT22;11719;51.052;6.982;2022-11-30T03:00:37;11.90;99.90
16243;DHT22;11719;51.052;6.982;2022-11-30T03:03:03;11.90;99.90
16243;DHT22;11719;51.052;6.982;2022-11-30T03:05:28;11.80;99.90
16243;DHT22;11719;51.052;6.982;2022-11-30T03:07:54;11.80;99.90
16243;DHT22;11719;51.052;6.982;2022-11-30T03:10:20;11.80;99.90
16243;DHT22;11719;51.052;6.982;2022-11-30T03:12:46;11.90;99.90
16243;DHT22;11719;51.052;6.982;2022-11-30T03:15:12;11.90;99.90
16243;DHT22;11719;51.052;6.982;2022-11-30T03:17:37;11.90;99.90
16243;DHT22;11719;51.052;6.982;2022-11-30T03:20:04;11.80;99.90
16243;DHT22;11719;51.052;6.982;2022-11-30T03:22:30;11.80;99.90
16243;DHT22;11719;51.052;6.982;2022-11-30T03:24:56;11.80;99.90
16243;DHT22;11719;51.052;6.982;2022-11-30T03:27:22;11.80;99.90
16243;DHT22;11719;51.052;6.982;2022-11-30T03:29:47;11.80;99.90
16243;DHT22;11719;51.052;6.982;2022-11-30T03:32:13;11.80;99.90
16243;DHT22;11719;51.052;6.982;2022-11-30T03:34:39;11.90;99.90
16243;DHT22;11719;51.052;6.982;2022-11-30T03:37:05;11.90;99.90
16243;DHT22;11719;51.052;6.982;2022-11-30T03:39:30;11.90;99.90
16243;DHT22;11719;51.052;6.982;2022-11-30T03:41:56;11.80;99.90
16243;DHT22;11719;51.052;6.982;2022-11-30T03:44:22;11.80;99.90
16243;DHT22;11719;51.052;6.982;2022-11-30T03:46:48;11.80;99.90
16243;DHT22;11719;51.052;6.982;2022-11-30T03:49:13;11.80;99.90
16243;DHT22;11719;51.052;6.982;2022-11-30T03:51:39;11.80;99.90
16243;DHT22;11719;51.052;6.982;2022-11-30T03:54:05;11.80;99.90
16243;DHT22;11719;51.052;6.982;2022-11-30T03:56:31;11.80;99.90
16243;DHT22;11719;51.052;6.982;2022-11-30T03:58:56;11.80;99.90
16243;DHT22;11719;51.052;6.982;2022-11-30T04:01:23;11.80;99.90
16243;DHT22;11719;51.052;6.982;2022-11-30T04:03:52;12.00;99.90
16243;DHT22;11719;51.052;6.982;2022-11-30T04:06:18;12.20;99.90
16243;DHT22;11719;51.052;6.982;2022-11-30T04:08:45;12.20;99.90
16243;DHT22;11719;51.052;6.982;2022-11-30T04:11:11;12.20;99.90
16243;DHT22;11719;51.052;6.982;2022-11-30T04:13:38;12.20;99.90
16243;DHT22;11719;51.052;6.982;2022-11-30T04:16:05;12.20;99.90
16243;DHT22;11719;51.052;6.982;2022-11-30T04:18:33;12.20;99.90
16243;DHT22;11719;51.052;6.982;2022-11-30T04:21:00;12.10;99.90
16243;DHT22;11719;51.052;6.982;2022-11-30T04:23:30;12.10;99.90
16243;DHT22;11719;51.052;6.982;2022-11-30T04:25:57;12.10;99.90
16243;DHT22;11719;51.052;6.982;2022-11-30T04:28:23;12.10;99.90
16243;DHT22;11719;51.052;6.982;2022-11-30T04:30:49;12.00;99.90
16243;DHT22;11719;51.052;6.982;2022-11-30T04:33:15;12.20;99.90
16243;DHT22;11719;51.052;6.982;2022-11-30T04:35:47;12.20;99.90
16243;DHT22;11719;51.052;6.982;2022-11-30T04:38:14;12.20;99.90
16243;DHT22;11719;51.052;6.982;2022-11-30T04:40:41;12.20;99.90
16243;DHT22;11719;51.052;6.982;2022-11-30T04:43:08;12.20;99.90
16243;DHT22;11719;51.052;6.982;2022-11-30T04:45:34;12.10;99.90
16243;DHT22;11719;51.052;6.982;2022-11-30T04:48:01;12.10;99.90
16243;DHT22;11719;51.052;6.982;2022-11-30T04:50:27;12.00;99.90
16243;DHT22;11719;51.052;6.982;2022-11-30T04:52:53;12.00;99.90
16243;DHT22;11719;51.052;6.982;2022-11-30T04:55:19;12.00;99.90
16243;DHT22;11719;51.052;6.982;2022-11-30T04:57:45;12.00;99.90
16243;DHT22;11719;51.052;6.982;2022-11-30T05:00:12;12.00;99.90
16243;DHT22;11719;51.052;6.982;2022-11-30T05:02:39;12.00;99.90
16243;DHT22;11719;51.052;6.982;2022-11-30T05:05:05;12.00;99.90
16243;DHT22;11719;51.052;6.982;2022-11-30T05:07:31;12.00;99.90
16243;DHT22;11719;51.052;6.982;2022-11-30T05:09:57;12.10;99.90
16243;DHT22;11719;51.052;6.982;2022-11-30T05:12:23;12.10;99.90
16243;DHT22;11719;51.052;6.982;2022-11-30T05:14:49;12.20;99.90
16243;DHT22;11719;51.052;6.982;2022-11-30T05:17:14;12.10;99.90
16243;DHT22;11719;51.052;6.982;2022-11-30T05:19:40;12.10;99.90
16243;DHT22;11719;51.052;6.982;2022-11-30T05:22:06;12.00;99.90
16243;DHT22;11719;51.052;6.982;2022-11-30T05:24:32;12.00;99.90
16243;DHT22;11719;51.052;6.982;2022-11-30T05:26:58;12.00;99.90
16243;DHT22;11719;51.052;6.982;2022-11-30T05:29:24;12.20;99.90
16243;DHT22;11719;51.052;6.982;2022-11-30T05:31:50;12.30;99.90
16243;DHT22;11719;51.052;6.982;2022-11-30T05:34:15;12.20;99.90
16243;DHT22;11719;51.052;6.982;2022-11-30T05:36:41;12.20;99.90
16243;DHT22;11719;51.052;6.982;2022-11-30T05:39:07;12.10;99.90
16243;DHT22;11719;51.052;6.982;2022-11-30T05:41:33;12.20;99.90
16243;DHT22;11719;51.052;6.982;2022-11-30T05:43:59;12.20;99.90
16243;DHT22;11719;51.052;6.982;2022-11-30T05:46:25;12.30;99.90
16243;DHT22;11719;51.052;6.982;2022-11-30T05:48:51;12.40;99.90
16243;DHT22;11719;51.052;6.982;2022-11-30T05:51:18;12.30;99.90
16243;DHT22;11719;51.052;6.982;2022-11-30T05:53:44;12.20;99.90
16243;DHT22;11719;51.052;6.982;2022-11-30T05:56:16;12.20;99.90
16243;DHT22;11719;51.052;6.982;2022-11-30T05:58:44;12.30;99.90
16243;DHT22;11719;51.052;6.982;2022-11-30T06:01:18;12.20;99.90
16243;DHT22;11719;51.052;6.982;2022-11-30T06:03:45;12.10;99.90
16243;DHT22;11719;51.052;6.982;2022-11-30T06:06:11;12.20;99.90
16243;DHT22;11719;51.052;6.982;2022-11-30T06:08:36;12.20;99.90
16243;DHT22;11719;51.052;6.982;2022-11-30T06:11:02;12.20;99.90
16243;DHT22;11719;51.052;6.982;2022-11-30T06:13:28;12.10;99.90
16243;DHT22;11719;51.052;6.982;2022-11-30T06:16:01;12.10;99.90
16243;DHT22;11719;51.052;6.982;2022-11-30T06:18:28;12.20;99.90
16243;DHT22;11719;51.052;6.982;2022-11-30T06:20:59;12.10;99.90
16243;DHT22;11719;51.052;6.982;2022-11-30T06:23:26;12.10;99.90
16243;DHT22;11719;51.052;6.982;2022-11-30T06:25:51;12.10;99.90
16243;DHT22;11719;51.052;6.982;2022-11-30T06:28:17;12.00;99.90
16243;DHT22;11719;51.052;6.982;2022-11-30T06:30:43;12.00;99.90
16243;DHT22;11719;51.052;6.982;2022-11-30T06:33:09;12.00;99.90
16243;DHT22;11719;51.052;6.982;2022-11-30T06:35:34;11.90;99.90
16243;DHT22;11719;51.052;6.982;2022-11-30T06:38:00;11.90;99.90
16243;DHT22;11719;51.052;6.982;2022-11-30T06:40:26;11.90;99.90
16243;DHT22;11719;51.052;6.982;2022-11-30T06:42:53;11.80;99.90
16243;DHT22;11719;51.052;6.982;2022-11-30T06:45:19;11.70;99.90
16243;DHT22;11719;51.052;6.982;2022-11-30T06:47:44;11.70;99.90
16243;DHT22;11719;51.052;6.982;2022-11-30T06:50:12;11.60;99.90
16243;DHT22;11719;51.052;6.982;2022-11-30T06:52:39;11.50;99.90
16243;DHT22;11719;51.052;6.982;2022-11-30T06:55:05;11.50;99.90
16243;DHT22;11719;51.052;6.982;2022-11-30T06:57:31;11.40;99.90
16243;DHT22;11719;51.052;6.982;2022-11-30T06:59:57;11.40;99.90
16243;DHT22;11719;51.052;6.982;2022-11-30T07:02:23;11.30;99.90
16243;DHT22;11719;51.052;6.982;2022-11-30T07:04:49;11.30;99.90
16243;DHT22;11719;51.052;6.982;2022-11-30T07:07:15;11.20;99.90
16243;DHT22;11719;51.052;6.982;2022-11-30T07:09:41;11.10;99.90
16243;DHT22;11719;51.052;6.982;2022-11-30T07:12:07;11.10;99.90
16243;DHT22;11719;51.052;6.982;2022-11-30T07:14:33;11.00;99.90
16243;DHT22;11719;51.052;6.982;2022-11-30T07:16:59;11.00;99.90
16243;DHT22;11719;51.052;6.982;2022-11-30T07:19:29;11.00;99.90
16243;DHT22;11719;51.052;6.982;2022-11-30T07:21:55;11.00;99.90
16243;DHT22;11719;51.052;6.982;2022-11-30T07:24:22;11.00;99.90
16243;DHT22;11719;51.052;6.982;2022-11-30T07:27:06;11.00;99.90
16243;DHT22;11719;51.052;6.982;2022-11-30T07:29:32;10.90;99.90
16243;DHT22;11719;51.052;6.982;2022-11-30T07:31:58;10.90;99.90
16243;DHT22;11719;51.052;6.982;2022-11-30T07:34:23;10.90;99.90
16243;DHT22;11719;51.052;6.982;2022-11-30T07:36:50;10.90;99.90
16243;DHT22;11719;51.052;6.982;2022-11-30T07:39:16;11.00;99.90
16243;DHT22;11719;51.052;6.982;2022-11-30T07:41:42;11.10;99.90
16243;DHT22;11719;51.052;6.982;2022-11-30T07:44:08;11.20;99.90
16243;DHT22;11719;51.052;6.982;2022-11-30T07:46:36;11.20;99.90
16243;DHT22;11719;51.052;6.982;2022-11-30T07:49:05;11.20;99.90
16243;DHT22;11719;51.052;6.982;2022-11-30T07:51:32;11.20;99.90
16243;DHT22;11719;51.052;6.982;2022-11-30T07:53:58;11.30;99.90
16243;DHT22;11719;51.052;6.982;2022-11-30T07:56:25;11.30;99.90
16243;DHT22;11719;51.052;6.982;2022-11-30T07:58:54;11.30;99.90
16243;DHT22;11719;51.052;6.982;2022-11-30T08:01:23;11.40;99.90
16243;DHT22;11719;51.052;6.982;2022-11-30T08:03:50;11.40;99.90
16243;DHT22;11719;51.052;6.982;2022-11-30T08:06:19;11.40;99.90
16243;DHT22;11719;51.052;6.982;2022-11-30T08:08:48;11.40;99.90
16243;DHT22;11719;51.052;6.982;2022-11-30T08:11:18;11.40;99.90
16243;DHT22;11719;51.052;6.982;2022-11-30T08:13:48;11.40;99.90
16243;DHT22;11719;51.052;6.982;2022-11-30T08:16:16;11.30;99.90
16243;DHT22;11719;51.052;6.982;2022-11-30T08:18:44;11.40;99.90
16243;DHT22;11719;51.052;6.982;2022-11-30T08:21:13;11.40;99.90
16243;DHT22;11719;51.052;6.982;2022-11-30T08:23:42;11.40;99.90
16243;DHT22;11719;51.052;6.982;2022-11-30T08:26:13;11.40;99.90
16243;DHT22;11719;51.052;6.982;2022-11-30T08:28:45;11.40;99.90
16243;DHT22;11719;51.052;6.982;2022-11-30T08:31:18;11.40;99.90
16243;DHT22;11719;51.052;6.982;2022-11-30T08:33:45;11.30;99.90
16243;DHT22;11719;51.052;6.982;2022-11-30T08:36:17;11.30;99.90
16243;DHT22;11719;51.052;6.982;2022-11-30T08:38:44;11.30;99.90
16243;DHT22;11719;51.052;6.982;2022-11-30T08:41:13;11.30;99.90
16243;DHT22;11719;51.052;6.982;2022-11-30T08:43:40;11.30;99.90
16243;DHT22;11719;51.052;6.982;2022-11-30T08:46:08;11.30;99.90
16243;DHT22;11719;51.052;6.982;2022-11-30T08:48:36;11.30;99.90
16243;DHT22;11719;51.052;6.982;2022-11-30T08:51:06;11.40;99.90
16243;DHT22;11719;51.052;6.982;2022-11-30T08:53:34;11.40;99.90
16243;DHT22;11719;51.052;6.982;2022-11-30T08:56:05;11.40;99.90
16243;DHT22;11719;51.052;6.982;2022-11-30T08:58:35;11.40;99.90
16243;DHT22;11719;51.052;6.982;2022-11-30T09:03:40;11.50;99.90
16243;DHT22;11719;51.052;6.982;2022-11-30T09:06:19;11.50;99.90
16243;DHT22;11719;51.052;6.982;2022-11-30T09:08:47;11.50;99.90
16243;DHT22;11719;51.052;6.982;2022-11-30T09:11:15;11.50;99.90
16243;DHT22;11719;51.052;6.982;2022-11-30T09:13:43;11.50;99.90
16243;DHT22;11719;51.052;6.982;2022-11-30T09:16:10;11.40;99.90
16243;DHT22;11719;51.052;6.982;2022-11-30T09:18:37;11.40;99.90
16243;DHT22;11719;51.052;6.982;2022-11-30T09:21:06;11.50;99.90
16243;DHT22;11719;51.052;6.982;2022-11-30T09:23:34;11.50;99.90
16243;DHT22;11719;51.052;6.982;2022-11-30T09:26:02;11.50;99.90
16243;DHT22;11719;51.052;6.982;2022-11-30T09:28:32;11.50;99.90
16243;DHT22;11719;51.052;6.982;2022-11-30T09:31:20;11.50;99.90
16243;DHT22;11719;51.052;6.982;2022-11-30T09:33:47;11.50;99.90
16243;DHT22;11719;51.052;6.982;2022-11-30T09:36:16;11.50;99.90
16243;DHT22;11719;51.052;6.982;2022-11-30T09:38:43;11.50;99.90
16243;DHT22;11719;51.052;6.982;2022-11-30T09:41:32;11.50;99.90
16243;DHT22;11719;51.052;6.982;2022-11-30T09:44:28;11.50;99.90
16243;DHT22;11719;51.052;6.982;2022-11-30T09:49:59;11.50;99.90
16243;DHT22;11719;51.052;6.982;2022-11-30T09:52:38;11.50;99.90
16243;DHT22;11719;51.052;6.982;2022-11-30T09:55:14;11.60;99.90
16243;DHT22;11719;51.052;6.982;2022-11-30T09:58:10;11.80;99.90
16243;DHT22;11719;51.052;6.982;2022-11-30T10:00:46;11.70;99.90
16243;DHT22;11719;51.052;6.982;2022-11-30T10:03:12;11.70;99.90
16243;DHT22;11719;51.052;6.982;2022-11-30T10:06:07;11.60;99.90
16243;DHT22;11719;51.052;6.982;2022-11-30T10:08:56;11.60;99.90
16243;DHT22;11719;51.052;6.982;2022-11-30T10:17:42;11.70;99.90
16243;DHT22;11719;51.052;6.982;2022-11-30T10:26:10;11.60;99.90
16243;DHT22;11719;51.052;6.982;2022-11-30T10:28:49;11.60;99.90
16243;DHT22;11719;51.052;6.982;2022-11-30T10:31:17;11.60;99.90
16243;DHT22;11719;51.052;6.982;2022-11-30T10:33:50;11.70;99.90
16243;DHT22;11719;51.052;6.982;2022-11-30T10:36:26;11.70;99.90
16243;DHT22;11719;51.052;6.982;2022-11-30T10:39:05;11.90;99.90
16243;DHT22;11719;51.052;6.982;2022-11-30T10:41:51;12.00;99.90
16243;DHT22;11719;51.052;6.982;2022-11-30T10:44:37;12.10;99.90
16243;DHT22;11719;51.052;6.982;2022-11-30T10:47:24;12.30;99.90
16243;DHT22;11719;51.052;6.982;2022-11-30T10:49:52;12.30;99.90
16243;DHT22;11719;51.052;6.982;2022-11-30T10:52:25;12.40;99.90
16243;DHT22;11719;51.052;6.982;2022-11-30T10:55:13;12.30;99.90
16243;DHT22;11719;51.052;6.982;2022-11-30T10:57:47;12.20;99.90
16243;DHT22;11719;51.052;6.982;2022-11-30T11:00:21;12.30;99.90
16243;DHT22;11719;51.052;6.982;2022-11-30T11:02:49;12.30;99.90
16243;DHT22;11719;51.052;6.982;2022-11-30T11:08:25;12.50;99.90
16243;DHT22;11719;51.052;6.982;2022-11-30T11:10:51;12.50;99.90
16243;DHT22;11719;51.052;6.982;2022-11-30T11:13:39;12.50;99.90
16243;DHT22;11719;51.052;6.982;2022-11-30T11:16:08;12.40;99.90
16243;DHT22;11719;51.052;6.982;2022-11-30T11:18:50;12.40;99.90
16243;DHT22;11719;51.052;6.982;2022-11-30T11:21:18;12.30;99.90
16243;DHT22;11719;51.052;6.982;2022-11-30T11:23:49;12.40;99.90
16243;DHT22;11719;51.052;6.982;2022-11-30T11:28:50;12.50;99.90
16243;DHT22;11719;51.052;6.982;2022-11-30T11:34:33;12.60;99.90
16243;DHT22;11719;51.052;6.982;2022-11-30T11:40:13;12.60;99.90
16243;DHT22;11719;51.052;6.982;2022-11-30T11:45:29;12.90;99.90
16243;DHT22;11719;51.052;6.982;2022-11-30T11:48:04;12.80;99.90
16243;DHT22;11719;51.052;6.982;2022-11-30T11:50:36;12.80;99.90
16243;DHT22;11719;51.052;6.982;2022-11-30T11:53:13;12.80;99.90
16243;DHT22;11719;51.052;6.982;2022-11-30T11:55:44;12.80;99.90
16243;DHT22;11719;51.052;6.982;2022-11-30T11:58:15;12.90;99.90
16243;DHT22;11719;51.052;6.982;2022-11-30T12:00:47;12.80;99.90
16243;DHT22;11719;51.052;6.982;2022-11-30T12:03:38;12.90;99.90
16243;DHT22;11719;51.052;6.982;2022-11-30T12:06:13;12.80;99.90
16243;DHT22;11719;51.052;6.982;2022-11-30T12:09:11;12.80;99.90
16243;DHT22;11719;51.052;6.982;2022-11-30T12:14:14;12.80;99.90
16243;DHT22;11719;51.052;6.982;2022-11-30T12:25:41;13.20;99.90
16243;DHT22;11719;51.052;6.982;2022-11-30T12:28:26;13.10;99.90
16243;DHT22;11719;51.052;6.982;2022-11-30T12:31:15;13.00;99.90
16243;DHT22;11719;51.052;6.982;2022-11-30T12:34:04;13.10;99.90
16243;DHT22;11719;51.052;6.982;2022-11-30T12:36:56;13.00;99.90
16243;DHT22;11719;51.052;6.982;2022-11-30T12:40:19;13.00;99.90
16243;DHT22;11719;51.052;6.982;2022-11-30T12:46:32;12.90;99.90
16243;DHT22;11719;51.052;6.982;2022-11-30T12:49:13;13.00;99.90
16243;DHT22;11719;51.052;6.982;2022-11-30T12:54:53;13.20;99.90
16243;DHT22;11719;51.052;6.982;2022-11-30T12:57:29;13.20;99.90
16243;DHT22;11719;51.052;6.982;2022-11-30T13:00:20;13.30;99.90
16243;DHT22;11719;51.052;6.982;2022-11-30T13:03:14;13.20;99.90
16243;DHT22;11719;51.052;6.982;2022-11-30T13:05:59;13.40;99.90
16243;DHT22;11719;51.052;6.982;2022-11-30T13:11:20;13.30;99.90
16243;DHT22;11719;51.052;6.982;2022-11-30T13:13:56;13.20;99.90
16243;DHT22;11719;51.052;6.982;2022-11-30T13:16:24;13.20;99.90
16243;DHT22;11719;51.052;6.982;2022-11-30T13:18:54;13.20;99.90
16243;DHT22;11719;51.052;6.982;2022-11-30T13:21:29;13.20;99.90
16243;DHT22;11719;51.052;6.982;2022-11-30T13:24:17;13.10;99.90
16243;DHT22;11719;51.052;6.982;2022-11-30T13:27:05;13.10;99.90
16243;DHT22;11719;51.052;6.982;2022-11-30T13:30:11;13.10;99.90
16243;DHT22;11719;51.052;6.982;2022-11-30T13:32:52;13.30;99.90
16243;DHT22;11719;51.052;6.982;2022-11-30T13:38:11;13.40;99.90
16243;DHT22;11719;51.052;6.982;2022-11-30T13:40:40;13.10;99.90
16243;DHT22;11719;51.052;6.982;2022-11-30T13:43:15;12.90;99.90
16243;DHT22;11719;51.052;6.982;2022-11-30T13:45:43;12.80;99.90
16243;DHT22;11719;51.052;6.982;2022-11-30T13:48:32;12.60;99.90
16243;DHT22;11719;51.052;6.982;2022-11-30T13:51:02;12.50;99.90
16243;DHT22;11719;51.052;6.982;2022-11-30T13:53:36;12.40;99.90
16243;DHT22;11719;51.052;6.982;2022-11-30T13:56:04;12.30;99.90
16243;DHT22;11719;51.052;6.982;2022-11-30T13:58:33;12.30;99.90
16243;DHT22;11719;51.052;6.982;2022-11-30T14:03:29;12.20;99.90
16243;DHT22;11719;51.052;6.982;2022-11-30T14:06:03;12.10;99.90
16243;DHT22;11719;51.052;6.982;2022-11-30T14:08:35;12.10;99.90
16243;DHT22;11719;51.052;6.982;2022-11-30T14:11:35;12.00;99.90
16243;DHT22;11719;51.052;6.982;2022-11-30T14:14:43;12.00;99.90
16243;DHT22;11719;51.052;6.982;2022-11-30T14:17:24;11.90;99.90
16243;DHT22;11719;51.052;6.982;2022-11-30T14:19:57;11.90;99.90
16243;DHT22;11719;51.052;6.982;2022-11-30T14:22:26;11.90;99.90
16243;DHT22;11719;51.052;6.982;2022-11-30T14:24:53;11.80;99.90
16243;DHT22;11719;51.052;6.982;2022-11-30T14:27:23;11.80;99.90
16243;DHT22;11719;51.052;6.982;2022-11-30T14:29:52;11.80;99.90
16243;DHT22;11719;51.052;6.982;2022-11-30T14:32:29;11.80;99.90
16243;DHT22;11719;51.052;6.982;2022-11-30T14:35:04;11.70;99.90
16243;DHT22;11719;51.052;6.982;2022-11-30T14:37:45;11.70;99.90
16243;DHT22;11719;51.052;6.982;2022-11-30T14:40:19;11.70;99.90
16243;DHT22;11719;51.052;6.982;2022-11-30T14:42:52;11.70;99.90
16243;DHT22;11719;51.052;6.982;2022-11-30T14:45:31;11.70;99.90
16243;DHT22;11719;51.052;6.982;2022-11-30T14:48:11;11.70;99.90
16243;DHT22;11719;51.052;6.982;2022-11-30T14:50:53;11.80;99.90
16243;DHT22;11719;51.052;6.982;2022-11-30T14:56:26;11.80;99.90
16243;DHT22;11719;51.052;6.982;2022-11-30T15:01:57;11.70;99.90
16243;DHT22;11719;51.052;6.982;2022-11-30T15:04:25;11.80;99.90
16243;DHT22;11719;51.052;6.982;2022-11-30T15:06:55;11.80;99.90
16243;DHT22;11719;51.052;6.982;2022-11-30T15:09:24;11.70;99.90
16243;DHT22;11719;51.052;6.982;2022-11-30T15:11:53;11.80;99.90
16243;DHT22;11719;51.052;6.982;2022-11-30T15:14:20;11.80;99.90
16243;DHT22;11719;51.052;6.982;2022-11-30T15:16:54;11.80;99.90
16243;DHT22;11719;51.052;6.982;2022-11-30T15:22:00;11.90;99.90
16243;DHT22;11719;51.052;6.982;2022-11-30T15:24:26;11.90;99.90
16243;DHT22;11719;51.052;6.982;2022-11-30T15:27:12;11.80;99.90
16243;DHT22;11719;51.052;6.982;2022-11-30T15:29:44;11.80;99.90
16243;DHT22;11719;51.052;6.982;2022-11-30T15:32:16;11.90;99.90
16243;DHT22;11719;51.052;6.982;2022-11-30T15:34:48;11.80;99.90
16243;DHT22;11719;51.052;6.982;2022-11-30T15:37:18;11.80;99.90
16243;DHT22;11719;51.052;6.982;2022-11-30T15:39:51;11.80;99.90
16243;DHT22;11719;51.052;6.982;2022-11-30T15:42:30;11.80;99.90
16243;DHT22;11719;51.052;6.982;2022-11-30T15:47:39;11.70;99.90
16243;DHT22;11719;51.052;6.982;2022-11-30T15:52:50;11.80;99.90
16243;DHT22;11719;51.052;6.982;2022-11-30T15:55:39;11.90;99.90
16243;DHT22;11719;51.052;6.982;2022-11-30T15:58:25;11.90;99.90
16243;DHT22;11719;51.052;6.982;2022-11-30T16:07:28;11.70;99.90
16243;DHT22;11719;51.052;6.982;2022-11-30T16:12:50;11.80;99.90
16243;DHT22;11719;51.052;6.982;2022-11-30T16:17:50;11.70;99.90
16243;DHT22;11719;51.052;6.982;2022-11-30T16:20:17;11.80;99.90
16243;DHT22;11719;51.052;6.982;2022-11-30T16:22:46;11.80;99.90
16243;DHT22;11719;51.052;6.982;2022-11-30T16:25:21;11.70;99.90
16243;DHT22;11719;51.052;6.982;2022-11-30T16:27:49;11.70;99.90
16243;DHT22;11719;51.052;6.982;2022-11-30T16:30:20;11.70;99.90
16243;DHT22;11719;51.052;6.982;2022-11-30T16:32:48;11.80;99.90
16243;DHT22;11719;51.052;6.982;2022-11-30T16:35:23;11.80;99.90
16243;DHT22;11719;51.052;6.982;2022-11-30T16:37:50;11.90;99.90
16243;DHT22;11719;51.052;6.982;2022-11-30T16:40:16;11.80;99.90
16243;DHT22;11719;51.052;6.982;2022-11-30T16:42:43;11.80;99.90
16243;DHT22;11719;51.052;6.982;2022-11-30T16:45:21;11.70;99.90
16243;DHT22;11719;51.052;6.982;2022-11-30T16:47:49;11.70;99.90
16243;DHT22;11719;51.052;6.982;2022-11-30T16:50:16;11.60;99.90
16243;DHT22;11719;51.052;6.982;2022-11-30T16:52:43;11.60;99.90
16243;DHT22;11719;51.052;6.982;2022-11-30T16:55:21;11.60;99.90
16243;DHT22;11719;51.052;6.982;2022-11-30T16:57:48;11.50;99.90
16243;DHT22;11719;51.052;6.982;2022-11-30T17:00:18;11.50;99.90
16243;DHT22;11719;51.052;6.982;2022-11-30T17:05:17;11.40;99.90
16243;DHT22;11719;51.052;6.982;2022-11-30T17:07:43;11.40;99.90
16243;DHT22;11719;51.052;6.982;2022-11-30T17:10:09;11.40;99.90
16243;DHT22;11719;51.052;6.982;2022-11-30T17:12:36;11.30;99.90
16243;DHT22;11719;51.052;6.982;2022-11-30T17:15:02;11.30;99.90
16243;DHT22;11719;51.052;6.982;2022-11-30T17:17:28;11.30;99.90
16243;DHT22;11719;51.052;6.982;2022-11-30T17:19:54;11.30;99.90
16243;DHT22;11719;51.052;6.982;2022-11-30T17:22:20;11.30;99.90
16243;DHT22;11719;51.052;6.982;2022-11-30T17:24:46;11.30;99.90
16243;DHT22;11719;51.052;6.982;2022-11-30T17:27:11;11.30;99.90
16243;DHT22;11719;51.052;6.982;2022-11-30T17:29:38;11.30;99.90
16243;DHT22;11719;51.052;6.982;2022-11-30T17:32:04;11.30;99.90
16243;DHT22;11719;51.052;6.982;2022-11-30T17:34:30;11.30;99.90